sensor_id;sensor_type;location;lat;lon;timestamp;P1;durP1;ratioP1;P2;durP2;ratioP2
47599;SDS011;33323;52.124;6.018;2022-09-24T00:01:35;37.20;;;24.83;;
47599;SDS011;33323;52.124;6.018;2022-09-24T00:04:05;37.78;;;24.80;;
47599;SDS011;33323;52.124;6.018;2022-09-24T00:06:41;39.17;;;24.35;;
47599;SDS011;33323;52.124;6.018;2022-09-24T00:09:11;41.13;;;26.73;;
47599;SDS011;33323;52.124;6.018;2022-09-24T00:11:44;37.55;;;25.40;;
47599;SDS011;33323;52.124;6.018;2022-09-24T00:14:11;37.97;;;24.15;;
47599;SDS011;33323;52.124;6.018;2022-09-24T00:16:39;37.13;;;24.70;;
47599;SDS011;33323;52.124;6.018;2022-09-24T00:19:08;38.13;;;25.52;;
47599;SDS011;33323;52.124;6.018;2022-09-24T00:21:37;38.75;;;25.42;;
47599;SDS011;33323;52.124;6.018;2022-09-24T00:24:12;34.53;;;23.30;;
47599;SDS011;33323;52.124;6.018;2022-09-24T00:27:01;33.35;;;22.27;;
47599;SDS011;33323;52.124;6.018;2022-09-24T00:29:31;31.80;;;21.85;;
47599;SDS011;33323;52.124;6.018;2022-09-24T00:32:01;36.75;;;24.20;;
47599;SDS011;33323;52.124;6.018;2022-09-24T00:34:30;37.10;;;22.98;;
47599;SDS011;33323;52.124;6.018;2022-09-24T00:36:57;34.47;;;23.52;;
47599;SDS011;33323;52.124;6.018;2022-09-24T00:39:24;32.85;;;22.25;;
47599;SDS011;33323;52.124;6.018;2022-09-24T00:41:51;35.10;;;22.67;;
47599;SDS011;33323;52.124;6.018;2022-09-24T00:49:39;30.55;;;21.83;;
47599;SDS011;33323;52.124;6.018;2022-09-24T00:52:07;31.65;;;20.30;;
47599;SDS011;33323;52.124;6.018;2022-09-24T00:54:34;32.50;;;22.45;;
47599;SDS011;33323;52.124;6.018;2022-09-24T00:57:02;30.60;;;20.67;;
47599;SDS011;33323;52.124;6.018;2022-09-24T00:59:29;30.10;;;20.52;;
47599;SDS011;33323;52.124;6.018;2022-09-24T01:01:56;30.30;;;21.08;;
47599;SDS011;33323;52.124;6.018;2022-09-24T01:04:25;31.35;;;21.70;;
47599;SDS011;33323;52.124;6.018;2022-09-24T01:06:53;33.63;;;22.20;;
47599;SDS011;33323;52.124;6.018;2022-09-24T01:09:22;30.60;;;20.13;;
47599;SDS011;33323;52.124;6.018;2022-09-24T01:15:27;31.60;;;19.58;;
47599;SDS011;33323;52.124;6.018;2022-09-24T01:17:58;28.50;;;18.83;;
47599;SDS011;33323;52.124;6.018;2022-09-24T01:23:41;29.20;;;18.73;;
47599;SDS011;33323;52.124;6.018;2022-09-24T01:27:02;27.70;;;18.60;;
47599;SDS011;33323;52.124;6.018;2022-09-24T01:29:48;27.08;;;17.80;;
47599;SDS011;33323;52.124;6.018;2022-09-24T01:35:16;30.30;;;20.35;;
47599;SDS011;33323;52.124;6.018;2022-09-24T01:37:48;33.58;;;20.35;;
47599;SDS011;33323;52.124;6.018;2022-09-24T01:40:27;32.45;;;20.25;;
47599;SDS011;33323;52.124;6.018;2022-09-24T01:42:56;34.65;;;21.45;;
47599;SDS011;33323;52.124;6.018;2022-09-24T01:45:25;32.45;;;19.95;;
47599;SDS011;33323;52.124;6.018;2022-09-24T01:48:00;33.20;;;20.73;;
47599;SDS011;33323;52.124;6.018;2022-09-24T01:50:28;30.63;;;20.38;;
47599;SDS011;33323;52.124;6.018;2022-09-24T01:53:05;45.28;;;21.27;;
47599;SDS011;33323;52.124;6.018;2022-09-24T01:55:44;36.60;;;21.80;;
47599;SDS011;33323;52.124;6.018;2022-09-24T01:58:17;35.70;;;21.85;;
47599;SDS011;33323;52.124;6.018;2022-09-24T02:00:50;35.85;;;22.60;;
47599;SDS011;33323;52.124;6.018;2022-09-24T02:03:27;35.65;;;23.63;;
47599;SDS011;33323;52.124;6.018;2022-09-24T02:06:04;32.85;;;21.17;;
47599;SDS011;33323;52.124;6.018;2022-09-24T02:08:45;35.47;;;22.17;;
47599;SDS011;33323;52.124;6.018;2022-09-24T02:11:17;35.30;;;22.20;;
47599;SDS011;33323;52.124;6.018;2022-09-24T02:16:18;37.38;;;22.73;;
47599;SDS011;33323;52.124;6.018;2022-09-24T02:18:51;40.35;;;22.60;;
47599;SDS011;33323;52.124;6.018;2022-09-24T02:21:22;36.90;;;22.02;;
47599;SDS011;33323;52.124;6.018;2022-09-24T02:23:52;39.83;;;23.40;;
47599;SDS011;33323;52.124;6.018;2022-09-24T02:26:23;42.47;;;23.60;;
47599;SDS011;33323;52.124;6.018;2022-09-24T02:28:50;42.45;;;25.10;;
47599;SDS011;33323;52.124;6.018;2022-09-24T02:31:39;42.13;;;24.55;;
47599;SDS011;33323;52.124;6.018;2022-09-24T02:34:10;42.25;;;24.92;;
47599;SDS011;33323;52.124;6.018;2022-09-24T02:39:16;39.42;;;24.77;;
47599;SDS011;33323;52.124;6.018;2022-09-24T02:41:44;41.60;;;24.38;;
47599;SDS011;33323;52.124;6.018;2022-09-24T02:44:14;44.47;;;25.52;;
47599;SDS011;33323;52.124;6.018;2022-09-24T02:46:42;46.95;;;27.23;;
47599;SDS011;33323;52.124;6.018;2022-09-24T02:49:11;44.53;;;24.83;;
47599;SDS011;33323;52.124;6.018;2022-09-24T02:51:40;45.17;;;26.38;;
47599;SDS011;33323;52.124;6.018;2022-09-24T02:54:08;45.90;;;28.25;;
47599;SDS011;33323;52.124;6.018;2022-09-24T02:56:36;49.78;;;30.60;;
47599;SDS011;33323;52.124;6.018;2022-09-24T02:59:03;52.00;;;29.42;;
47599;SDS011;33323;52.124;6.018;2022-09-24T03:01:31;48.65;;;29.38;;
47599;SDS011;33323;52.124;6.018;2022-09-24T03:03:59;49.83;;;28.27;;
47599;SDS011;33323;52.124;6.018;2022-09-24T03:06:27;49.45;;;27.75;;
47599;SDS011;33323;52.124;6.018;2022-09-24T03:08:54;51.63;;;31.02;;
47599;SDS011;33323;52.124;6.018;2022-09-24T03:11:21;49.70;;;26.67;;
47599;SDS011;33323;52.124;6.018;2022-09-24T03:13:49;47.88;;;30.00;;
47599;SDS011;33323;52.124;6.018;2022-09-24T03:16:16;48.47;;;27.65;;
47599;SDS011;33323;52.124;6.018;2022-09-24T03:18:47;50.35;;;26.85;;
47599;SDS011;33323;52.124;6.018;2022-09-24T03:21:16;42.35;;;25.17;;
47599;SDS011;33323;52.124;6.018;2022-09-24T03:23:46;39.05;;;24.15;;
47599;SDS011;33323;52.124;6.018;2022-09-24T03:26:13;42.08;;;24.58;;
47599;SDS011;33323;52.124;6.018;2022-09-24T03:28:40;40.83;;;25.33;;
47599;SDS011;33323;52.124;6.018;2022-09-24T03:31:07;42.72;;;24.70;;
47599;SDS011;33323;52.124;6.018;2022-09-24T03:33:38;39.13;;;24.58;;
47599;SDS011;33323;52.124;6.018;2022-09-24T03:38:48;41.63;;;24.80;;
47599;SDS011;33323;52.124;6.018;2022-09-24T03:41:21;39.28;;;23.65;;
47599;SDS011;33323;52.124;6.018;2022-09-24T03:43:49;34.22;;;21.27;;
47599;SDS011;33323;52.124;6.018;2022-09-24T03:46:16;33.88;;;20.65;;
47599;SDS011;33323;52.124;6.018;2022-09-24T03:48:44;32.85;;;21.33;;
47599;SDS011;33323;52.124;6.018;2022-09-24T03:51:16;39.97;;;22.75;;
47599;SDS011;33323;52.124;6.018;2022-09-24T03:53:45;34.85;;;22.67;;
47599;SDS011;33323;52.124;6.018;2022-09-24T03:56:13;37.33;;;21.45;;
47599;SDS011;33323;52.124;6.018;2022-09-24T03:58:41;33.10;;;20.00;;
47599;SDS011;33323;52.124;6.018;2022-09-24T04:01:13;35.40;;;20.73;;
47599;SDS011;33323;52.124;6.018;2022-09-24T04:03:48;30.42;;;19.55;;
47599;SDS011;33323;52.124;6.018;2022-09-24T04:06:15;31.92;;;19.02;;
47599;SDS011;33323;52.124;6.018;2022-09-24T04:08:50;31.50;;;19.73;;
47599;SDS011;33323;52.124;6.018;2022-09-24T04:11:18;28.38;;;17.67;;
47599;SDS011;33323;52.124;6.018;2022-09-24T04:13:45;29.38;;;20.20;;
47599;SDS011;33323;52.124;6.018;2022-09-24T04:16:12;26.23;;;17.00;;
47599;SDS011;33323;52.124;6.018;2022-09-24T04:18:39;28.63;;;17.25;;
47599;SDS011;33323;52.124;6.018;2022-09-24T04:21:06;25.75;;;16.02;;
47599;SDS011;33323;52.124;6.018;2022-09-24T04:23:33;30.02;;;17.17;;
47599;SDS011;33323;52.124;6.018;2022-09-24T04:26:00;27.75;;;18.35;;
47599;SDS011;33323;52.124;6.018;2022-09-24T04:28:28;24.42;;;15.95;;
47599;SDS011;33323;52.124;6.018;2022-09-24T04:30:56;24.25;;;16.45;;
47599;SDS011;33323;52.124;6.018;2022-09-24T04:33:23;26.50;;;17.42;;
47599;SDS011;33323;52.124;6.018;2022-09-24T04:35:50;29.05;;;17.23;;
47599;SDS011;33323;52.124;6.018;2022-09-24T04:38:17;26.25;;;16.17;;
47599;SDS011;33323;52.124;6.018;2022-09-24T04:40:46;29.60;;;17.65;;
47599;SDS011;33323;52.124;6.018;2022-09-24T04:43:13;27.70;;;16.65;;
47599;SDS011;33323;52.124;6.018;2022-09-24T04:45:41;26.55;;;16.67;;
47599;SDS011;33323;52.124;6.018;2022-09-24T04:48:10;22.10;;;15.27;;
47599;SDS011;33323;52.124;6.018;2022-09-24T04:50:37;26.13;;;15.15;;
47599;SDS011;33323;52.124;6.018;2022-09-24T04:53:11;26.88;;;16.13;;
47599;SDS011;33323;52.124;6.018;2022-09-24T04:55:39;25.13;;;15.27;;
47599;SDS011;33323;52.124;6.018;2022-09-24T04:58:07;26.77;;;16.00;;
47599;SDS011;33323;52.124;6.018;2022-09-24T05:00:35;23.50;;;15.48;;
47599;SDS011;33323;52.124;6.018;2022-09-24T05:03:02;23.33;;;15.95;;
47599;SDS011;33323;52.124;6.018;2022-09-24T05:05:30;23.02;;;15.75;;
47599;SDS011;33323;52.124;6.018;2022-09-24T05:07:59;21.70;;;14.57;;
47599;SDS011;33323;52.124;6.018;2022-09-24T05:10:27;26.20;;;16.38;;
47599;SDS011;33323;52.124;6.018;2022-09-24T05:12:59;25.45;;;15.82;;
47599;SDS011;33323;52.124;6.018;2022-09-24T05:15:27;27.95;;;16.70;;
47599;SDS011;33323;52.124;6.018;2022-09-24T05:17:54;23.63;;;15.73;;
47599;SDS011;33323;52.124;6.018;2022-09-24T05:20:21;27.38;;;16.80;;
47599;SDS011;33323;52.124;6.018;2022-09-24T05:22:48;24.52;;;16.40;;
47599;SDS011;33323;52.124;6.018;2022-09-24T05:25:16;32.25;;;18.35;;
47599;SDS011;33323;52.124;6.018;2022-09-24T05:27:46;27.38;;;16.65;;
47599;SDS011;33323;52.124;6.018;2022-09-24T05:30:15;27.33;;;17.52;;
47599;SDS011;33323;52.124;6.018;2022-09-24T05:32:44;26.95;;;16.33;;
47599;SDS011;33323;52.124;6.018;2022-09-24T05:35:12;26.63;;;16.35;;
47599;SDS011;33323;52.124;6.018;2022-09-24T05:37:39;26.77;;;17.88;;
47599;SDS011;33323;52.124;6.018;2022-09-24T05:40:06;28.65;;;17.70;;
47599;SDS011;33323;52.124;6.018;2022-09-24T05:42:57;26.88;;;17.08;;
47599;SDS011;33323;52.124;6.018;2022-09-24T05:45:29;25.88;;;15.75;;
47599;SDS011;33323;52.124;6.018;2022-09-24T05:47:56;27.13;;;17.73;;
47599;SDS011;33323;52.124;6.018;2022-09-24T05:50:25;25.77;;;17.02;;
47599;SDS011;33323;52.124;6.018;2022-09-24T05:52:53;26.52;;;16.45;;
47599;SDS011;33323;52.124;6.018;2022-09-24T05:55:20;24.60;;;15.85;;
47599;SDS011;33323;52.124;6.018;2022-09-24T05:57:48;28.00;;;17.60;;
47599;SDS011;33323;52.124;6.018;2022-09-24T06:00:16;29.40;;;17.75;;
47599;SDS011;33323;52.124;6.018;2022-09-24T06:02:43;25.65;;;16.40;;
47599;SDS011;33323;52.124;6.018;2022-09-24T06:05:11;27.48;;;17.52;;
47599;SDS011;33323;52.124;6.018;2022-09-24T06:07:38;27.20;;;18.33;;
47599;SDS011;33323;52.124;6.018;2022-09-24T06:10:05;26.58;;;17.67;;
47599;SDS011;33323;52.124;6.018;2022-09-24T06:12:33;26.65;;;17.33;;
47599;SDS011;33323;52.124;6.018;2022-09-24T06:15:00;27.00;;;19.05;;
47599;SDS011;33323;52.124;6.018;2022-09-24T06:17:27;26.30;;;17.58;;
47599;SDS011;33323;52.124;6.018;2022-09-24T06:19:56;26.75;;;17.35;;
47599;SDS011;33323;52.124;6.018;2022-09-24T06:22:23;27.48;;;17.05;;
47599;SDS011;33323;52.124;6.018;2022-09-24T06:24:53;28.58;;;16.52;;
47599;SDS011;33323;52.124;6.018;2022-09-24T06:27:21;28.45;;;18.70;;
47599;SDS011;33323;52.124;6.018;2022-09-24T06:29:48;27.85;;;18.70;;
47599;SDS011;33323;52.124;6.018;2022-09-24T06:32:15;27.88;;;18.27;;
47599;SDS011;33323;52.124;6.018;2022-09-24T06:34:44;35.88;;;19.98;;
47599;SDS011;33323;52.124;6.018;2022-09-24T06:37:11;28.27;;;18.42;;
47599;SDS011;33323;52.124;6.018;2022-09-24T06:39:38;27.75;;;19.65;;
47599;SDS011;33323;52.124;6.018;2022-09-24T06:42:05;30.15;;;20.13;;
47599;SDS011;33323;52.124;6.018;2022-09-24T06:44:33;30.92;;;18.83;;
47599;SDS011;33323;52.124;6.018;2022-09-24T06:47:01;26.67;;;17.33;;
47599;SDS011;33323;52.124;6.018;2022-09-24T06:49:29;27.33;;;18.35;;
47599;SDS011;33323;52.124;6.018;2022-09-24T06:51:59;27.08;;;18.85;;
47599;SDS011;33323;52.124;6.018;2022-09-24T06:54:27;26.48;;;18.02;;
47599;SDS011;33323;52.124;6.018;2022-09-24T06:56:54;24.48;;;17.48;;
47599;SDS011;33323;52.124;6.018;2022-09-24T06:59:21;30.15;;;20.52;;
47599;SDS011;33323;52.124;6.018;2022-09-24T07:01:49;29.98;;;19.77;;
47599;SDS011;33323;52.124;6.018;2022-09-24T07:04:16;28.85;;;18.88;;
47599;SDS011;33323;52.124;6.018;2022-09-24T07:06:43;29.60;;;19.27;;
47599;SDS011;33323;52.124;6.018;2022-09-24T07:09:29;26.35;;;18.05;;
47599;SDS011;33323;52.124;6.018;2022-09-24T07:11:59;30.48;;;18.63;;
47599;SDS011;33323;52.124;6.018;2022-09-24T07:14:31;28.63;;;18.63;;
47599;SDS011;33323;52.124;6.018;2022-09-24T07:16:58;25.42;;;17.67;;
47599;SDS011;33323;52.124;6.018;2022-09-24T07:19:25;29.98;;;18.95;;
47599;SDS011;33323;52.124;6.018;2022-09-24T07:21:52;26.98;;;17.90;;
47599;SDS011;33323;52.124;6.018;2022-09-24T07:24:19;30.77;;;18.77;;
47599;SDS011;33323;52.124;6.018;2022-09-24T07:26:46;28.10;;;18.52;;
47599;SDS011;33323;52.124;6.018;2022-09-24T07:29:15;26.55;;;18.92;;
47599;SDS011;33323;52.124;6.018;2022-09-24T07:31:42;24.58;;;16.17;;
47599;SDS011;33323;52.124;6.018;2022-09-24T07:34:09;25.05;;;15.63;;
47599;SDS011;33323;52.124;6.018;2022-09-24T07:36:36;27.00;;;16.92;;
47599;SDS011;33323;52.124;6.018;2022-09-24T07:39:03;30.85;;;20.02;;
47599;SDS011;33323;52.124;6.018;2022-09-24T07:41:31;24.50;;;16.98;;
47599;SDS011;33323;52.124;6.018;2022-09-24T07:44:09;24.75;;;17.10;;
47599;SDS011;33323;52.124;6.018;2022-09-24T07:46:37;22.27;;;16.25;;
47599;SDS011;33323;52.124;6.018;2022-09-24T07:49:04;21.80;;;15.73;;
47599;SDS011;33323;52.124;6.018;2022-09-24T07:51:31;24.85;;;15.60;;
47599;SDS011;33323;52.124;6.018;2022-09-24T07:53:58;22.25;;;16.25;;
47599;SDS011;33323;52.124;6.018;2022-09-24T07:56:25;25.42;;;16.67;;
47599;SDS011;33323;52.124;6.018;2022-09-24T07:58:52;23.20;;;16.13;;
47599;SDS011;33323;52.124;6.018;2022-09-24T08:01:19;20.48;;;14.43;;
47599;SDS011;33323;52.124;6.018;2022-09-24T08:03:47;23.40;;;15.80;;
47599;SDS011;33323;52.124;6.018;2022-09-24T08:06:14;24.60;;;15.88;;
47599;SDS011;33323;52.124;6.018;2022-09-24T08:08:41;25.30;;;16.35;;
47599;SDS011;33323;52.124;6.018;2022-09-24T08:11:10;22.90;;;15.70;;
47599;SDS011;33323;52.124;6.018;2022-09-24T08:13:39;25.08;;;16.08;;
47599;SDS011;33323;52.124;6.018;2022-09-24T08:16:06;20.73;;;15.98;;
47599;SDS011;33323;52.124;6.018;2022-09-24T08:18:33;24.35;;;16.20;;
47599;SDS011;33323;52.124;6.018;2022-09-24T08:21:07;26.95;;;17.15;;
47599;SDS011;33323;52.124;6.018;2022-09-24T08:23:38;28.38;;;16.77;;
47599;SDS011;33323;52.124;6.018;2022-09-24T08:26:05;22.95;;;16.63;;
47599;SDS011;33323;52.124;6.018;2022-09-24T08:28:33;21.48;;;15.20;;
47599;SDS011;33323;52.124;6.018;2022-09-24T08:31:01;23.48;;;14.82;;
47599;SDS011;33323;52.124;6.018;2022-09-24T08:33:34;22.85;;;15.00;;
47599;SDS011;33323;52.124;6.018;2022-09-24T08:36:03;25.73;;;15.73;;
47599;SDS011;33323;52.124;6.018;2022-09-24T08:38:33;22.70;;;15.00;;
47599;SDS011;33323;52.124;6.018;2022-09-24T08:46:44;21.65;;;15.18;;
47599;SDS011;33323;52.124;6.018;2022-09-24T08:49:42;19.50;;;14.35;;
47599;SDS011;33323;52.124;6.018;2022-09-24T08:55:12;18.75;;;13.43;;
47599;SDS011;33323;52.124;6.018;2022-09-24T09:00:35;20.48;;;13.50;;
47599;SDS011;33323;52.124;6.018;2022-09-24T09:03:14;17.73;;;12.07;;
47599;SDS011;33323;52.124;6.018;2022-09-24T09:05:58;18.85;;;12.70;;
47599;SDS011;33323;52.124;6.018;2022-09-24T09:11:32;20.48;;;13.77;;
47599;SDS011;33323;52.124;6.018;2022-09-24T09:14:08;20.20;;;13.57;;
47599;SDS011;33323;52.124;6.018;2022-09-24T09:19:59;18.65;;;12.52;;
47599;SDS011;33323;52.124;6.018;2022-09-24T09:22:34;22.45;;;13.57;;
47599;SDS011;33323;52.124;6.018;2022-09-24T09:25:22;19.73;;;13.52;;
47599;SDS011;33323;52.124;6.018;2022-09-24T09:30:32;14.70;;;11.27;;
47599;SDS011;33323;52.124;6.018;2022-09-24T09:41:46;18.98;;;11.20;;
47599;SDS011;33323;52.124;6.018;2022-09-24T09:44:48;19.85;;;11.05;;
47599;SDS011;33323;52.124;6.018;2022-09-24T09:47:24;15.65;;;10.35;;
47599;SDS011;33323;52.124;6.018;2022-09-24T09:50:09;14.48;;;10.18;;
47599;SDS011;33323;52.124;6.018;2022-09-24T09:52:51;13.65;;;9.95;;
47599;SDS011;33323;52.124;6.018;2022-09-24T09:55:29;17.40;;;10.73;;
47599;SDS011;33323;52.124;6.018;2022-09-24T09:58:23;16.88;;;11.45;;
47599;SDS011;33323;52.124;6.018;2022-09-24T10:01:08;14.07;;;10.13;;
47599;SDS011;33323;52.124;6.018;2022-09-24T10:06:12;17.13;;;10.43;;
47599;SDS011;33323;52.124;6.018;2022-09-24T10:09:05;13.55;;;9.23;;
47599;SDS011;33323;52.124;6.018;2022-09-24T10:11:38;15.57;;;10.70;;
47599;SDS011;33323;52.124;6.018;2022-09-24T10:14:08;14.48;;;9.07;;
47599;SDS011;33323;52.124;6.018;2022-09-24T10:16:48;14.90;;;9.88;;
47599;SDS011;33323;52.124;6.018;2022-09-24T10:19:23;12.77;;;9.63;;
47599;SDS011;33323;52.124;6.018;2022-09-24T10:21:54;12.77;;;9.93;;
47599;SDS011;33323;52.124;6.018;2022-09-24T10:24:25;13.40;;;9.57;;
47599;SDS011;33323;52.124;6.018;2022-09-24T10:26:54;11.73;;;8.98;;
47599;SDS011;33323;52.124;6.018;2022-09-24T10:29:21;10.73;;;8.43;;
47599;SDS011;33323;52.124;6.018;2022-09-24T10:32:17;10.88;;;7.90;;
47599;SDS011;33323;52.124;6.018;2022-09-24T10:37:22;12.48;;;8.35;;
47599;SDS011;33323;52.124;6.018;2022-09-24T10:40:23;12.23;;;7.88;;
47599;SDS011;33323;52.124;6.018;2022-09-24T10:42:59;9.93;;;7.60;;
47599;SDS011;33323;52.124;6.018;2022-09-24T10:51:37;9.82;;;7.90;;
47599;SDS011;33323;52.124;6.018;2022-09-24T10:56:58;8.10;;;6.60;;
47599;SDS011;33323;52.124;6.018;2022-09-24T11:00:06;9.82;;;6.38;;
47599;SDS011;33323;52.124;6.018;2022-09-24T11:05:55;7.93;;;6.00;;
47599;SDS011;33323;52.124;6.018;2022-09-24T11:08:52;8.80;;;6.78;;
47599;SDS011;33323;52.124;6.018;2022-09-24T11:11:49;8.90;;;6.65;;
47599;SDS011;33323;52.124;6.018;2022-09-24T11:15:10;7.40;;;4.82;;
47599;SDS011;33323;52.124;6.018;2022-09-24T11:24:40;7.45;;;5.68;;
47599;SDS011;33323;52.124;6.018;2022-09-24T11:33:51;7.93;;;4.32;;
47599;SDS011;33323;52.124;6.018;2022-09-24T11:42:39;8.07;;;5.15;;
47599;SDS011;33323;52.124;6.018;2022-09-24T11:57:56;4.22;;;3.60;;
47599;SDS011;33323;52.124;6.018;2022-09-24T12:00:54;5.32;;;4.10;;
47599;SDS011;33323;52.124;6.018;2022-09-24T12:03:38;5.40;;;4.10;;
47599;SDS011;33323;52.124;6.018;2022-09-24T12:06:18;5.18;;;4.20;;
47599;SDS011;33323;52.124;6.018;2022-09-24T12:08:53;4.78;;;3.53;;
47599;SDS011;33323;52.124;6.018;2022-09-24T12:14:11;5.00;;;3.78;;
47599;SDS011;33323;52.124;6.018;2022-09-24T12:16:53;4.60;;;3.35;;
47599;SDS011;33323;52.124;6.018;2022-09-24T12:19:29;5.10;;;3.20;;
47599;SDS011;33323;52.124;6.018;2022-09-24T12:22:16;6.63;;;3.28;;
47599;SDS011;33323;52.124;6.018;2022-09-24T12:24:50;6.03;;;3.85;;
47599;SDS011;33323;52.124;6.018;2022-09-24T12:27:25;6.32;;;3.63;;
47599;SDS011;33323;52.124;6.018;2022-09-24T12:30:51;5.05;;;2.78;;
47599;SDS011;33323;52.124;6.018;2022-09-24T12:33:32;4.13;;;2.85;;
47599;SDS011;33323;52.124;6.018;2022-09-24T12:39:25;4.40;;;3.05;;
47599;SDS011;33323;52.124;6.018;2022-09-24T12:42:00;3.60;;;2.25;;
47599;SDS011;33323;52.124;6.018;2022-09-24T12:44:38;5.85;;;3.13;;
47599;SDS011;33323;52.124;6.018;2022-09-24T12:47:25;4.10;;;3.22;;
47599;SDS011;33323;52.124;6.018;2022-09-24T12:49:59;4.22;;;3.20;;
47599;SDS011;33323;52.124;6.018;2022-09-24T12:52:38;3.25;;;2.92;;
47599;SDS011;33323;52.124;6.018;2022-09-24T12:55:18;3.72;;;3.08;;
47599;SDS011;33323;52.124;6.018;2022-09-24T12:58:04;4.03;;;3.30;;
47599;SDS011;33323;52.124;6.018;2022-09-24T13:00:43;4.63;;;3.60;;
47599;SDS011;33323;52.124;6.018;2022-09-24T13:03:30;4.43;;;3.50;;
47599;SDS011;33323;52.124;6.018;2022-09-24T13:06:20;4.20;;;3.15;;
47599;SDS011;33323;52.124;6.018;2022-09-24T13:08:55;4.03;;;3.35;;
47599;SDS011;33323;52.124;6.018;2022-09-24T13:11:30;4.47;;;3.67;;
47599;SDS011;33323;52.124;6.018;2022-09-24T13:16:38;6.53;;;3.40;;
47599;SDS011;33323;52.124;6.018;2022-09-24T13:19:20;4.70;;;3.72;;
47599;SDS011;33323;52.124;6.018;2022-09-24T13:21:57;4.78;;;3.78;;
47599;SDS011;33323;52.124;6.018;2022-09-24T13:24:30;5.03;;;3.35;;
47599;SDS011;33323;52.124;6.018;2022-09-24T13:27:20;3.70;;;2.80;;
47599;SDS011;33323;52.124;6.018;2022-09-24T13:30:16;3.95;;;3.08;;
47599;SDS011;33323;52.124;6.018;2022-09-24T13:50:08;3.17;;;2.40;;
47599;SDS011;33323;52.124;6.018;2022-09-24T14:01:00;5.25;;;2.78;;
47599;SDS011;33323;52.124;6.018;2022-09-24T14:03:37;2.65;;;2.40;;
47599;SDS011;33323;52.124;6.018;2022-09-24T14:06:12;3.72;;;1.98;;
47599;SDS011;33323;52.124;6.018;2022-09-24T14:08:42;3.35;;;2.33;;
47599;SDS011;33323;52.124;6.018;2022-09-24T14:11:13;4.28;;;1.98;;
47599;SDS011;33323;52.124;6.018;2022-09-24T14:13:44;4.53;;;2.10;;
47599;SDS011;33323;52.124;6.018;2022-09-24T14:16:16;2.70;;;1.73;;
47599;SDS011;33323;52.124;6.018;2022-09-24T14:18:45;5.15;;;2.05;;
47599;SDS011;33323;52.124;6.018;2022-09-24T14:21:24;2.97;;;1.70;;
47599;SDS011;33323;52.124;6.018;2022-09-24T14:24:05;3.72;;;1.38;;
47599;SDS011;33323;52.124;6.018;2022-09-24T14:26:49;4.25;;;1.90;;
47599;SDS011;33323;52.124;6.018;2022-09-24T14:29:26;7.65;;;1.98;;
47599;SDS011;33323;52.124;6.018;2022-09-24T14:32:20;3.88;;;1.70;;
47599;SDS011;33323;52.124;6.018;2022-09-24T14:34:56;7.72;;;1.83;;
47599;SDS011;33323;52.124;6.018;2022-09-24T14:37:39;2.85;;;1.45;;
47599;SDS011;33323;52.124;6.018;2022-09-24T14:40:16;5.65;;;1.83;;
47599;SDS011;33323;52.124;6.018;2022-09-24T14:42:47;2.90;;;1.75;;
47599;SDS011;33323;52.124;6.018;2022-09-24T14:45:22;4.38;;;2.17;;
47599;SDS011;33323;52.124;6.018;2022-09-24T14:48:00;5.18;;;2.53;;
47599;SDS011;33323;52.124;6.018;2022-09-24T14:50:31;4.28;;;1.90;;
47599;SDS011;33323;52.124;6.018;2022-09-24T14:53:20;6.72;;;2.28;;
47599;SDS011;33323;52.124;6.018;2022-09-24T14:55:47;2.53;;;2.00;;
47599;SDS011;33323;52.124;6.018;2022-09-24T15:00:57;3.47;;;2.15;;
47599;SDS011;33323;52.124;6.018;2022-09-24T15:06:03;3.47;;;2.40;;
47599;SDS011;33323;52.124;6.018;2022-09-24T15:09:01;3.60;;;2.22;;
47599;SDS011;33323;52.124;6.018;2022-09-24T15:11:33;4.30;;;2.40;;
47599;SDS011;33323;52.124;6.018;2022-09-24T15:16:50;8.45;;;1.80;;
47599;SDS011;33323;52.124;6.018;2022-09-24T15:19:22;4.53;;;1.80;;
47599;SDS011;33323;52.124;6.018;2022-09-24T15:21:55;10.07;;;2.20;;
47599;SDS011;33323;52.124;6.018;2022-09-24T15:24:23;5.53;;;1.80;;
47599;SDS011;33323;52.124;6.018;2022-09-24T15:27:13;7.22;;;1.83;;
47599;SDS011;33323;52.124;6.018;2022-09-24T15:30:02;4.15;;;1.55;;
47599;SDS011;33323;52.124;6.018;2022-09-24T15:32:33;4.43;;;1.40;;
47599;SDS011;33323;52.124;6.018;2022-09-24T15:35:01;9.10;;;1.90;;
47599;SDS011;33323;52.124;6.018;2022-09-24T15:37:37;11.43;;;2.63;;
47599;SDS011;33323;52.124;6.018;2022-09-24T15:40:15;7.43;;;1.23;;
47599;SDS011;33323;52.124;6.018;2022-09-24T15:42:50;4.97;;;1.33;;
47599;SDS011;33323;52.124;6.018;2022-09-24T15:45:19;3.28;;;1.27;;
47599;SDS011;33323;52.124;6.018;2022-09-24T15:47:49;10.25;;;1.80;;
47599;SDS011;33323;52.124;6.018;2022-09-24T15:50:18;9.75;;;1.80;;
47599;SDS011;33323;52.124;6.018;2022-09-24T15:52:52;8.27;;;1.52;;
47599;SDS011;33323;52.124;6.018;2022-09-24T15:55:24;8.10;;;2.17;;
47599;SDS011;33323;52.124;6.018;2022-09-24T15:57:51;6.00;;;1.98;;
47599;SDS011;33323;52.124;6.018;2022-09-24T16:00:20;6.13;;;1.40;;
47599;SDS011;33323;52.124;6.018;2022-09-24T16:02:51;6.25;;;1.90;;
47599;SDS011;33323;52.124;6.018;2022-09-24T16:05:22;8.25;;;1.88;;
47599;SDS011;33323;52.124;6.018;2022-09-24T16:07:50;9.00;;;1.67;;
47599;SDS011;33323;52.124;6.018;2022-09-24T16:10:17;10.70;;;2.30;;
47599;SDS011;33323;52.124;6.018;2022-09-24T16:12:44;6.45;;;1.65;;
47599;SDS011;33323;52.124;6.018;2022-09-24T16:15:12;5.60;;;1.50;;
47599;SDS011;33323;52.124;6.018;2022-09-24T16:17:41;4.50;;;1.30;;
47599;SDS011;33323;52.124;6.018;2022-09-24T16:20:09;7.35;;;1.80;;
47599;SDS011;33323;52.124;6.018;2022-09-24T16:22:36;6.82;;;1.63;;
47599;SDS011;33323;52.124;6.018;2022-09-24T16:25:03;6.80;;;1.90;;
47599;SDS011;33323;52.124;6.018;2022-09-24T16:27:31;6.63;;;2.25;;
47599;SDS011;33323;52.124;6.018;2022-09-24T16:30:00;7.60;;;2.15;;
47599;SDS011;33323;52.124;6.018;2022-09-24T16:32:31;9.63;;;2.78;;
47599;SDS011;33323;52.124;6.018;2022-09-24T16:34:59;8.38;;;2.33;;
47599;SDS011;33323;52.124;6.018;2022-09-24T16:37:26;5.05;;;1.50;;
47599;SDS011;33323;52.124;6.018;2022-09-24T16:39:54;5.50;;;1.70;;
47599;SDS011;33323;52.124;6.018;2022-09-24T16:42:21;3.72;;;1.50;;
47599;SDS011;33323;52.124;6.018;2022-09-24T16:44:51;6.68;;;1.27;;
47599;SDS011;33323;52.124;6.018;2022-09-24T16:47:18;4.80;;;1.48;;
47599;SDS011;33323;52.124;6.018;2022-09-24T16:49:46;5.75;;;1.42;;
47599;SDS011;33323;52.124;6.018;2022-09-24T16:52:13;9.45;;;3.20;;
47599;SDS011;33323;52.124;6.018;2022-09-24T16:54:40;10.68;;;2.20;;
47599;SDS011;33323;52.124;6.018;2022-09-24T16:57:07;6.90;;;1.35;;
47599;SDS011;33323;52.124;6.018;2022-09-24T16:59:34;4.78;;;1.02;;
47599;SDS011;33323;52.124;6.018;2022-09-24T17:02:01;3.85;;;1.08;;
47599;SDS011;33323;52.124;6.018;2022-09-24T17:04:29;6.93;;;1.38;;
47599;SDS011;33323;52.124;6.018;2022-09-24T17:06:56;10.20;;;1.63;;
47599;SDS011;33323;52.124;6.018;2022-09-24T17:09:24;5.53;;;1.25;;
47599;SDS011;33323;52.124;6.018;2022-09-24T17:12:09;6.85;;;1.27;;
47599;SDS011;33323;52.124;6.018;2022-09-24T17:14:37;8.30;;;1.02;;
47599;SDS011;33323;52.124;6.018;2022-09-24T17:17:04;3.95;;;0.70;;
47599;SDS011;33323;52.124;6.018;2022-09-24T17:19:31;8.25;;;1.05;;
47599;SDS011;33323;52.124;6.018;2022-09-24T17:21:58;6.57;;;1.70;;
47599;SDS011;33323;52.124;6.018;2022-09-24T17:24:26;15.30;;;1.27;;
47599;SDS011;33323;52.124;6.018;2022-09-24T17:26:53;5.00;;;1.10;;